Time;durP1;ratioP1;P1;durP2;ratioP2;P2;SDS_P1;SDS_P2;PMS_P1;PMS_P2;Temp;Humidity;BMP_temperature;BMP_pressure;BME280_temperature;BME280_humidity;BME280_pressure;Samples;Min_cycle;Max_cycle;Signal;HPM_P1;HPM_P2
2022/03/12 00:02:03;;;;;;;;;7.33;5.00;;;;;10.14;83.24;100798.59;5079346;28;45369;-75
2022/03/12 00:04:30;;;;;;;;;6.33;6.33;;;;;9.97;83.83;100769.97;5078820;28;47576;-75
2022/03/12 00:06:55;;;;;;;;;6.67;6.00;;;;;10.04;84.81;100803.16;5079097;28;45366;-75
2022/03/12 00:09:22;;;;;;;;;8.00;5.00;;;;;9.99;84.75;100793.63;5079227;27;45350;-75
2022/03/12 00:11:52;;;;;;;;;5.67;5.67;;;;;9.97;83.83;100800.69;5079018;27;45559;-76
2022/03/12 00:14:21;;;;;;;;;10.00;5.00;;;;;9.97;84.08;100804.16;5078754;27;45817;-74
2022/03/12 00:16:48;;;;;;;;;6.00;6.00;;;;;9.90;83.60;100797.28;5078981;27;45227;-74
2022/03/12 00:19:15;;;;;;;;;6.33;6.00;;;;;9.86;85.28;100808.75;5078789;28;45506;-76
2022/03/12 00:21:42;;;;;;;;;5.00;4.67;;;;;9.59;85.60;100768.94;5079083;28;45196;-75
2022/03/12 00:24:10;;;;;;;;;6.00;6.00;;;;;9.84;85.62;100816.69;5078777;27;47059;-75
2022/03/12 00:26:40;;;;;;;;;5.00;4.00;;;;;9.84;85.51;100821.09;5078819;27;45441;-75
2022/03/12 00:29:12;;;;;;;;;7.33;6.33;;;;;9.82;85.62;100820.25;5078696;27;45434;-75
2022/03/12 00:31:38;;;;;;;;;5.67;5.67;;;;;9.66;85.87;100799.50;5078807;27;45376;-75
2022/03/12 00:34:03;;;;;;;;;10.33;6.67;;;;;9.67;86.06;100814.38;5078298;27;45734;-79
2022/03/12 00:36:29;;;;;;;;;7.33;5.67;;;;;9.76;85.22;100831.75;5078927;28;45434;-79
2022/03/12 00:38:54;;;;;;;;;6.00;6.00;;;;;9.60;85.28;100802.25;5078662;28;45271;-77
2022/03/12 00:41:20;;;;;;;;;5.00;5.00;;;;;9.73;85.88;100835.28;5078813;28;45515;-77
2022/03/12 00:43:46;;;;;;;;;3.67;3.00;;;;;9.65;84.73;100826.66;5078298;27;45494;-76
2022/03/12 00:46:13;;;;;;;;;5.67;5.67;;;;;9.70;85.86;100837.09;5078464;27;45847;-77
2022/03/12 00:48:39;;;;;;;;;7.67;6.00;;;;;9.63;86.09;100840.72;5078163;27;45310;-77
2022/03/12 00:51:07;;;;;;;;;7.33;5.00;;;;;9.35;85.57;100797.41;5077436;27;45371;-76
2022/03/12 00:53:34;;;;;;;;;11.00;9.67;;;;;9.62;86.23;100852.16;5077108;28;46662;-76
2022/03/12 00:55:59;;;;;;;;;6.67;6.33;;;;;9.61;85.46;100856.53;5076279;27;45408;-76
2022/03/12 00:58:25;;;;;;;;;5.33;5.00;;;;;9.44;86.32;100827.03;5077955;27;45482;-77
2022/03/12 01:00:50;;;;;;;;;5.00;5.00;;;;;9.57;86.93;100852.25;5078622;27;45328;-77
2022/03/12 01:03:16;;;;;;;;;7.00;5.33;;;;;9.52;85.84;100844.41;5077849;27;45335;-78
2022/03/12 01:05:53;;;;;;;;;4.00;4.00;;;;;9.57;85.80;100858.34;5078147;27;45369;-77
2022/03/12 01:08:20;;;;;;;;;5.67;4.67;;;;;9.59;85.73;100863.59;5078161;27;45327;-76
2022/03/12 01:10:47;;;;;;;;;6.00;5.00;;;;;9.59;85.39;100848.66;5078037;27;45400;-77
2022/03/12 01:13:13;;;;;;;;;5.33;5.33;;;;;9.49;85.62;100825.22;5077824;27;46606;-77
2022/03/12 01:15:39;;;;;;;;;6.67;6.67;;;;;9.74;85.64;100865.97;5090999;27;45426;-76
2022/03/12 01:18:12;;;;;;;;;4.33;4.33;;;;;9.56;84.20;100832.09;5098315;27;45181;-76
2022/03/12 01:20:38;;;;;;;;;5.00;5.00;;;;;9.74;85.00;100868.59;5098416;27;45346;-77
2022/03/12 01:23:04;;;;;;;;;8.33;5.00;;;;;9.63;86.37;100862.66;5097653;27;45239;-76
2022/03/12 01:25:29;;;;;;;;;4.33;4.33;;;;;9.63;84.40;100869.66;5098214;27;45176;-76
2022/03/12 01:27:55;;;;;;;;;7.00;5.00;;;;;9.63;86.21;100864.38;5087695;27;45192;-75
2022/03/12 01:30:31;;;;;;;;;5.00;5.00;;;;;9.55;86.30;100854.88;5078212;28;45246;-76
2022/03/12 01:32:57;;;;;;;;;2.33;2.33;;;;;9.54;85.46;100860.16;5077416;28;46496;-76
2022/03/12 01:35:24;;;;;;;;;5.00;5.00;;;;;9.59;86.02;100869.69;5077880;27;45359;-73
2022/03/12 01:37:49;;;;;;;;;5.67;5.67;;;;;9.48;85.92;100855.88;5077914;27;45274;-75
2022/03/12 01:40:15;;;;;;;;;4.67;4.00;;;;;9.57;86.58;100873.28;5077852;28;45460;-75
2022/03/12 01:42:43;;;;;;;;;6.33;6.00;;;;;9.49;87.01;100851.50;5077712;28;45680;-74
2022/03/12 01:45:10;;;;;;;;;8.33;4.00;;;;;9.46;87.25;100857.66;5077280;27;45395;-74
2022/03/12 01:47:36;;;;;;;;;5.33;4.00;;;;;9.51;85.27;100857.59;5077732;27;45281;-74
2022/03/12 01:50:04;;;;;;;;;5.00;5.00;;;;;9.45;85.85;100852.44;5077825;27;45479;-75
2022/03/12 01:52:30;;;;;;;;;10.67;8.33;;;;;9.40;86.61;100850.75;5077401;27;45536;-75
2022/03/12 01:54:56;;;;;;;;;9.67;7.33;;;;;9.44;86.92;100864.72;5077548;27;45266;-75
2022/03/12 01:57:22;;;;;;;;;4.00;4.00;;;;;9.37;86.58;100860.44;5077594;27;45419;-74
2022/03/12 01:59:48;;;;;;;;;9.67;7.00;;;;;9.31;87.08;100853.53;5077749;27;45221;-75
2022/03/12 02:02:15;;;;;;;;;5.33;4.33;;;;;9.43;85.75;100877.88;5077385;27;46868;-74
2022/03/12 02:04:49;;;;;;;;;6.00;5.00;;;;;9.40;86.67;100878.78;5077213;27;45478;-75
2022/03/12 02:07:16;;;;;;;;;6.00;6.00;;;;;9.21;86.66;100860.69;5077460;27;45426;-74
2022/03/12 02:09:41;;;;;;;;;6.67;6.33;;;;;9.21;87.31;100862.44;5077529;27;45476;-75
2022/03/12 02:12:07;;;;;;;;;4.00;4.00;;;;;9.23;86.49;100866.75;5077088;28;45319;-75
2022/03/12 02:14:33;;;;;;;;;6.67;6.67;;;;;9.06;86.39;100846.03;5077433;27;45383;-74
2022/03/12 02:17:01;;;;;;;;;7.00;5.67;;;;;9.19;86.54;100875.59;5077261;27;45395;-75
2022/03/12 02:19:29;;;;;;;;;6.00;4.67;;;;;9.29;86.36;100888.59;5077155;27;45452;-75
2022/03/12 02:21:57;;;;;;;;;5.00;5.00;;;;;9.30;87.62;100904.34;5077102;27;46080;-75
2022/03/12 02:24:25;;;;;;;;;6.00;6.00;;;;;9.24;86.33;100886.91;5076975;27;45258;-75
2022/03/12 02:26:53;;;;;;;;;6.00;6.00;;;;;9.26;87.09;100891.28;5077153;28;45400;-75
2022/03/12 02:29:20;;;;;;;;;6.33;5.00;;;;;9.26;86.14;100892.13;5077327;27;45229;-74
2022/03/12 02:31:48;;;;;;;;;7.67;6.00;;;;;9.24;86.74;100886.91;5076766;27;46525;-75
2022/03/12 02:34:22;;;;;;;;;6.00;5.00;;;;;9.21;86.68;100889.56;5076667;27;45399;-75
2022/03/12 02:36:51;;;;;;;;;6.67;5.33;;;;;9.16;86.98;100880.88;5080069;27;45490;-75
2022/03/12 02:39:17;;;;;;;;;7.33;5.33;;;;;9.22;86.74;100893.06;5080728;27;45367;-75
2022/03/12 02:41:43;;;;;;;;;6.00;6.00;;;;;9.22;86.01;100891.31;5080217;27;47383;-75
2022/03/12 02:44:17;;;;;;;;;10.00;7.67;;;;;9.14;87.82;100889.69;5080239;27;45295;-74
2022/03/12 02:46:43;;;;;;;;;6.00;6.00;;;;;9.10;86.82;100882.75;5080520;27;45335;-75
2022/03/12 02:49:08;;;;;;;;;7.67;7.00;;;;;9.11;86.84;100887.13;5080363;27;45460;-75
2022/03/12 02:51:37;;;;;;;;;5.00;5.00;;;;;8.99;87.68;100873.25;5079978;27;46332;-74
2022/03/12 02:54:02;;;;;;;;;6.00;6.00;;;;;9.10;88.10;100894.13;5080272;27;45299;-75
2022/03/12 02:56:29;;;;;;;;;6.67;5.00;;;;;9.02;88.27;100886.34;5080328;27;45508;-75
2022/03/12 02:58:54;;;;;;;;;12.00;7.00;;;;;8.98;88.12;100884.66;5080545;27;45433;-75
2022/03/12 03:01:22;;;;;;;;;6.33;4.67;;;;;8.97;88.36;100879.41;5079845;27;46478;-75
2022/03/12 03:03:47;;;;;;;;;6.00;6.00;;;;;8.97;88.25;100884.69;5079960;27;45538;-74
2022/03/12 03:06:14;;;;;;;;;11.67;10.67;;;;;8.95;87.83;100887.31;5080102;28;46605;-75
2022/03/12 03:08:40;;;;;;;;;9.00;4.33;;;;;9.00;88.17;100901.28;5080295;27;45399;-75
2022/03/12 03:11:14;;;;;;;;;13.00;10.00;;;;;8.91;88.15;100887.41;5079853;27;45418;-75
2022/03/12 03:13:44;;;;;;;;;7.00;6.00;;;;;9.02;88.22;100898.63;5079849;27;45421;-74
2022/03/12 03:16:24;;;;;;;;;8.67;7.00;;;;;8.99;88.32;100898.63;5080192;27;45327;-75
2022/03/12 03:18:53;;;;;;;;;5.00;5.00;;;;;8.98;88.33;100902.19;5079886;27;45223;-75
2022/03/12 03:21:27;;;;;;;;;6.33;5.33;;;;;8.73;88.21;100859.63;5079669;27;46677;-75
2022/03/12 03:23:54;;;;;;;;;6.00;5.00;;;;;8.95;88.26;100894.34;5078355;28;45306;-75
2022/03/12 03:26:40;;;;;;;;;5.67;5.00;;;;;8.95;88.13;100896.97;5079833;27;45287;-74
2022/03/12 03:29:06;;;;;;;;;5.00;5.00;;;;;8.91;88.39;100895.28;5080023;27;45360;-75
2022/03/12 03:31:31;;;;;;;;;6.33;5.00;;;;;8.90;88.26;100902.25;5079212;27;45340;-75
2022/03/12 03:33:57;;;;;;;;;9.00;6.00;;;;;8.54;88.60;100846.75;5079562;27;45373;-74
2022/03/12 03:36:23;;;;;;;;;7.33;7.33;;;;;8.77;89.16;100896.34;5079703;27;45245;-75
2022/03/12 03:38:48;;;;;;;;;10.33;6.00;;;;;8.81;88.43;100900.63;5079859;27;45267;-74
2022/03/12 03:41:14;;;;;;;;;5.00;5.00;;;;;8.83;87.91;100916.34;5079263;28;47192;-74
2022/03/12 03:43:46;;;;;;;;;8.33;6.00;;;;;8.79;89.54;100904.19;5079178;27;45210;-74
2022/03/12 03:46:17;;;;;;;;;7.00;7.00;;;;;8.73;88.86;100899.00;5078859;27;45380;-75
2022/03/12 03:48:45;;;;;;;;;11.00;7.00;;;;;8.67;89.28;100895.56;5079622;27;45293;-75
2022/03/12 03:51:12;;;;;;;;;7.00;6.00;;;;;8.80;88.60;100914.66;5079012;27;47285;-73
2022/03/12 03:53:37;;;;;;;;;9.00;6.00;;;;;8.71;88.47;100913.03;5079094;27;45436;-74
2022/03/12 03:56:04;;;;;;;;;5.33;5.33;;;;;8.76;89.45;100933.06;5079509;28;46305;-75
2022/03/12 03:58:32;;;;;;;;;7.00;7.00;;;;;8.78;88.54;100926.06;5079472;27;45211;-75
2022/03/12 04:00:58;;;;;;;;;9.00;6.33;;;;;8.78;88.83;100934.81;5079115;27;46290;-75
2022/03/12 04:03:25;;;;;;;;;8.33;6.00;;;;;8.68;89.10;100928.81;5078556;27;45394;-74
2022/03/12 04:05:51;;;;;;;;;11.00;6.67;;;;;8.64;88.58;100932.34;5078937;27;45314;-74
2022/03/12 04:08:17;;;;;;;;;9.00;9.00;;;;;8.76;88.65;100946.19;5079421;27;45281;-75
2022/03/12 04:10:43;;;;;;;;;8.00;4.00;;;;;8.67;88.55;100928.81;5078829;28;45628;-75
2022/03/12 04:13:27;;;;;;;;;5.00;2.33;;;;;8.76;87.69;100952.34;5079146;27;45411;-74
2022/03/12 04:15:52;;;;;;;;;4.67;4.67;;;;;8.72;88.30;100940.13;5079161;27;45433;-75
2022/03/12 04:18:21;;;;;;;;;5.33;4.00;;;;;8.79;88.26;100952.31;5079122;27;45364;-74
2022/03/12 04:20:48;;;;;;;;;6.33;5.00;;;;;8.85;86.97;100959.25;5078453;27;46638;-74
2022/03/12 04:23:25;;;;;;;;;7.67;6.00;;;;;8.88;87.56;100956.56;5078965;27;45292;-75
2022/03/12 04:25:53;;;;;;;;;5.67;5.33;;;;;8.97;86.12;100972.19;5078800;27;45382;-74
2022/03/12 04:28:21;;;;;;;;;3.33;2.33;;;;;9.00;86.74;100963.41;5079073;27;45312;-75
2022/03/12 04:30:47;;;;;;;;;7.67;5.00;;;;;9.06;85.82;100955.44;5078719;27;45464;-74
2022/03/12 04:33:14;;;;;;;;;5.33;4.33;;;;;8.91;86.78;100934.66;5078393;28;45411;-75
2022/03/12 04:35:41;;;;;;;;;6.33;5.00;;;;;8.92;86.03;100941.63;5078578;27;45281;-74
2022/03/12 04:38:09;;;;;;;;;4.00;4.00;;;;;9.02;86.05;100965.16;5078845;27;45292;-74
2022/03/12 04:40:34;;;;;;;;;5.33;5.00;;;;;8.96;85.69;100956.47;5078333;27;46592;-75
2022/03/12 04:43:00;;;;;;;;;6.67;4.33;;;;;8.93;86.65;100960.03;5078635;27;45236;-74
2022/03/12 04:45:26;;;;;;;;;6.67;6.67;;;;;8.92;87.21;100967.88;5078398;28;45277;-74
2022/03/12 04:47:54;;;;;;;;;9.67;5.00;;;;;8.87;86.30;100971.47;5078770;27;45522;-74
2022/03/12 04:50:22;;;;;;;;;6.33;6.33;;;;;8.90;85.90;100975.78;5078095;27;46629;-74
2022/03/12 04:52:52;;;;;;;;;3.67;3.67;;;;;8.89;86.27;100990.69;5078230;27;45323;-74
2022/03/12 04:55:19;;;;;;;;;6.67;5.33;;;;;8.87;86.62;100991.59;5078166;27;45274;-74
2022/03/12 04:57:46;;;;;;;;;5.33;5.00;;;;;8.73;86.97;100976.00;5077742;27;45334;-74
2022/03/12 05:00:23;;;;;;;;;5.00;4.33;;;;;8.84;86.06;100991.63;5078050;27;45742;-74
2022/03/12 05:02:53;;;;;;;;;6.00;3.67;;;;;8.79;86.50;100983.81;5077996;27;45336;-74
2022/03/12 05:05:19;;;;;;;;;3.67;3.67;;;;;8.75;86.12;100976.00;5078203;28;45443;-74
2022/03/12 05:07:45;;;;;;;;;2.00;0.00;;;;;8.79;86.52;100985.56;5078340;28;45490;-75
2022/03/12 05:10:16;;;;;;;;;5.67;5.00;;;;;8.75;86.23;100989.13;5078137;27;45297;-74
2022/03/12 05:12:43;;;;;;;;;5.67;4.33;;;;;8.73;86.18;100988.25;5078126;27;45264;-73
2022/03/12 05:15:11;;;;;;;;;8.00;4.00;;;;;8.73;86.87;100991.75;5078175;27;45705;-73
2022/03/12 05:17:44;;;;;;;;;7.00;5.00;;;;;8.63;86.44;100990.97;5078351;28;45181;-73
2022/03/12 05:20:11;;;;;;;;;8.00;5.00;;;;;8.67;86.52;100990.06;5077835;27;46529;-74
2022/03/12 05:22:36;;;;;;;;;5.67;3.67;;;;;8.52;86.61;100978.00;5077790;27;45435;-73
2022/03/12 05:25:03;;;;;;;;;6.00;6.00;;;;;8.65;87.10;100994.44;5078124;27;45676;-73
2022/03/12 05:27:28;;;;;;;;;8.67;5.00;;;;;8.55;86.58;100982.31;5078148;27;45543;-73
2022/03/12 05:29:54;;;;;;;;;4.67;4.67;;;;;8.46;86.82;100977.16;5077593;28;45437;-73
2022/03/12 05:32:20;;;;;;;;;4.67;4.67;;;;;8.46;86.48;100983.28;5077766;28;45297;-73
2022/03/12 05:34:45;;;;;;;;;7.00;6.00;;;;;8.55;86.58;100998.06;5077674;28;45294;-75
2022/03/12 05:37:11;;;;;;;;;5.33;5.33;;;;;8.56;86.98;101007.69;5078061;28;45344;-75
2022/03/12 05:39:37;;;;;;;;;5.67;4.67;;;;;8.52;87.38;101012.09;5077550;28;45445;-75
2022/03/12 05:42:06;;;;;;;;;4.00;4.00;;;;;8.43;87.18;100995.53;5077746;27;45347;-74
2022/03/12 05:44:34;;;;;;;;;10.00;6.00;;;;;8.42;87.07;100997.28;5077559;27;45224;-74
2022/03/12 05:47:01;;;;;;;;;5.00;4.67;;;;;8.42;87.66;100999.03;5077845;27;45655;-75
2022/03/12 05:49:26;;;;;;;;;5.33;5.00;;;;;8.52;86.98;101008.59;5077283;27;46171;-74
2022/03/12 05:51:51;;;;;;;;;7.67;4.67;;;;;8.41;87.17;101000.81;5077352;27;45384;-74
2022/03/12 05:54:17;;;;;;;;;5.67;5.00;;;;;8.49;86.13;101006.84;5077583;28;45817;-75
2022/03/12 05:56:43;;;;;;;;;9.00;4.00;;;;;8.45;86.48;101002.56;5077679;27;45406;-74
2022/03/12 05:59:09;;;;;;;;;10.00;6.00;;;;;8.42;86.71;101005.16;5077341;27;47294;-75
2022/03/12 06:01:35;;;;;;;;;5.00;5.00;;;;;8.39;86.17;101009.56;5077260;27;45360;-74
2022/03/12 06:04:00;;;;;;;;;6.00;6.00;;;;;8.41;86.55;101023.53;5077559;27;45292;-75
2022/03/12 06:06:31;;;;;;;;;10.00;6.33;;;;;8.46;86.55;101027.88;5077338;27;45421;-75
2022/03/12 06:08:58;;;;;;;;;8.33;4.67;;;;;8.34;86.33;101023.59;5077559;27;46240;-75
2022/03/12 06:11:29;;;;;;;;;7.33;6.00;;;;;8.44;87.31;101042.78;5080736;27;45489;-75
2022/03/12 06:13:59;;;;;;;;;9.33;6.00;;;;;8.35;87.06;101030.59;5080874;28;45403;-75
2022/03/12 06:16:25;;;;;;;;;6.33;6.33;;;;;8.36;86.31;101031.44;5081246;27;45413;-74
2022/03/12 06:18:52;;;;;;;;;7.33;5.33;;;;;8.41;87.22;101047.16;5080575;28;47054;-74
2022/03/12 06:21:18;;;;;;;;;5.00;4.33;;;;;8.36;86.98;101040.22;5080563;27;45384;-74
2022/03/12 06:23:44;;;;;;;;;7.67;5.33;;;;;8.36;86.55;101036.69;5081012;27;45427;-74
2022/03/12 06:26:14;;;;;;;;;7.67;4.00;;;;;8.40;86.55;101048.91;5081032;27;45337;-74
2022/03/12 06:28:41;;;;;;;;;6.67;5.67;;;;;8.35;86.87;101043.72;5080388;27;45504;-74
2022/03/12 06:31:08;;;;;;;;;10.67;5.67;;;;;8.36;86.23;101050.72;5080457;28;45517;-73
2022/03/12 06:33:34;;;;;;;;;7.00;4.00;;;;;8.45;87.03;101064.63;5080644;27;45167;-74
2022/03/12 06:36:02;;;;;;;;;10.00;9.33;;;;;8.45;87.02;101072.50;5080797;27;45398;-74
2022/03/12 06:38:28;;;;;;;;;24.67;18.67;;;;;8.48;86.15;101073.38;5080309;27;45347;-75
2022/03/12 06:40:58;;;;;;;;;8.00;6.00;;;;;8.46;85.40;101066.41;5080431;27;45399;-75
2022/03/12 06:43:28;;;;;;;;;6.00;6.00;;;;;8.60;85.33;101080.25;5080305;28;45505;-73
2022/03/12 06:45:58;;;;;;;;;10.33;7.33;;;;;8.65;84.93;101086.31;5080608;27;45398;-74
2022/03/12 06:48:24;;;;;;;;;6.00;6.00;;;;;8.67;84.60;101086.31;5080163;27;46035;-74
2022/03/12 06:50:50;;;;;;;;;8.67;4.33;;;;;8.63;84.79;101090.72;5080165;27;45246;-75
2022/03/12 06:53:15;;;;;;;;;12.67;8.33;;;;;8.66;85.32;101101.19;5080231;28;45316;-75
2022/03/12 06:55:42;;;;;;;;;7.67;7.00;;;;;8.67;84.32;101089.81;5078427;27;45194;-75
2022/03/12 06:58:07;;;;;;;;;10.00;7.33;;;;;8.61;84.46;101079.38;5064330;27;46272;-74
2022/03/12 07:00:33;;;;;;;;;11.33;11.33;;;;;8.45;84.79;101062.91;5068035;28;45483;-72
2022/03/12 07:02:59;;;;;;;;;6.00;6.00;;;;;8.78;84.76;101128.22;5060137;28;45388;-76
2022/03/12 07:05:25;;;;;;;;;13.00;9.67;;;;;8.78;84.04;101115.09;5059869;28;45333;-75
2022/03/12 07:07:51;;;;;;;;;8.67;6.00;;;;;8.81;83.88;101117.69;5059232;28;45384;-79
2022/03/12 07:10:17;;;;;;;;;6.67;6.67;;;;;8.87;83.49;101118.50;5059856;28;45321;-79
2022/03/12 07:12:44;;;;;;;;;12.00;7.33;;;;;8.94;83.43;101123.69;5059554;28;45156;-78
2022/03/12 07:15:14;;;;;;;;;9.00;6.00;;;;;8.96;82.92;101114.94;5060083;28;45272;-76
2022/03/12 07:17:41;;;;;;;;;11.00;7.00;;;;;9.02;83.21;101109.59;5059352;28;46445;-77
2022/03/12 07:20:08;;;;;;;;;6.00;6.00;;;;;9.51;81.63;101134.47;5059400;28;45323;-76
2022/03/12 07:22:33;;;;;;;;;7.00;6.00;;;;;9.74;79.71;101122.75;5058653;28;45527;-75
2022/03/12 07:24:59;;;;;;;;;8.33;6.33;;;;;9.92;79.10;101133.03;5058453;28;45780;-77
2022/03/12 07:27:25;;;;;;;;;10.67;5.00;;;;;9.94;78.48;101130.41;5059450;28;45480;-77
2022/03/12 07:29:51;;;;;;;;;10.67;5.67;;;;;9.95;78.89;101142.66;5059279;28;45171;-77
2022/03/12 07:32:17;;;;;;;;;7.67;7.33;;;;;10.04;78.08;101120.63;5059497;28;45408;-74
2022/03/12 07:34:42;;;;;;;;;7.00;6.00;;;;;10.15;77.80;101139.75;5059742;28;45327;-75
2022/03/12 07:37:09;;;;;;;;;11.67;7.67;;;;;10.06;77.96;101134.59;5059058;28;46363;-74
2022/03/12 07:39:35;;;;;;;;;10.33;8.67;;;;;10.14;77.51;101147.63;5059396;28;45399;-74
2022/03/12 07:42:03;;;;;;;;;8.33;6.33;;;;;10.13;76.91;101156.44;5059486;28;45341;-74
2022/03/12 07:44:28;;;;;;;;;9.67;6.67;;;;;10.04;77.63;101154.81;5057774;28;45611;-76
2022/03/12 07:46:54;;;;;;;;;4.67;4.67;;;;;10.00;77.38;101161.00;5059134;28;46316;-75
2022/03/12 07:49:20;;;;;;;;;7.00;6.00;;;;;9.97;77.85;101163.69;5059007;28;45368;-74
2022/03/12 07:51:45;;;;;;;;;7.00;6.00;;;;;9.89;77.85;101155.88;5058915;28;45334;-76
2022/03/12 07:54:13;;;;;;;;;6.00;5.00;;;;;10.04;77.75;101181.97;5059134;28;45548;-72
2022/03/12 07:56:39;;;;;;;;;8.00;6.00;;;;;10.14;77.65;101182.75;5058373;28;45329;-74
2022/03/12 07:59:04;;;;;;;;;5.00;4.67;;;;;10.23;77.53;101181.72;5058946;28;45407;-75
2022/03/12 08:01:29;;;;;;;;;7.00;4.00;;;;;10.18;76.84;101173.03;5058935;28;45364;-74
2022/03/12 08:03:55;;;;;;;;;9.33;5.33;;;;;10.26;76.72;101168.53;5059499;28;45300;-74
2022/03/12 08:06:20;;;;;;;;;6.00;6.00;;;;;10.30;76.51;101170.22;5073362;28;45461;-73
2022/03/12 08:08:46;;;;;;;;;8.33;8.00;;;;;10.48;76.14;101168.25;5077550;27;45482;-74
2022/03/12 08:11:31;;;;;;;;;5.67;4.00;;;;;10.69;75.47;101178.44;5078672;27;45505;-76
2022/03/12 08:14:08;;;;;;;;;8.00;7.00;;;;;11.06;74.57;101188.34;5077970;28;45562;-75
2022/03/12 08:16:36;;;;;;;;;7.67;6.00;;;;;11.12;73.23;101179.44;5078205;28;46246;-76
2022/03/12 08:19:03;;;;;;;;;6.67;6.67;;;;;11.30;73.58;101204.63;5075292;28;45442;-75
2022/03/12 08:21:30;;;;;;;;;9.00;6.67;;;;;12.27;71.26;101202.69;5078002;27;45471;-75
2022/03/12 08:23:55;;;;;;;;;6.33;6.00;;;;;13.07;67.06;101199.88;5078253;27;45371;-75
2022/03/12 08:26:21;;;;;;;;;8.00;5.67;;;;;13.55;64.02;101220.66;5075176;28;45704;-75
2022/03/12 08:28:47;;;;;;;;;11.00;4.33;;;;;13.67;63.67;101208.00;5078791;27;45466;-78
2022/03/12 08:31:13;;;;;;;;;6.67;6.00;;;;;13.60;62.67;101222.31;5078863;27;45206;-77
2022/03/12 08:33:39;;;;;;;;;4.67;4.67;;;;;13.56;64.10;101233.00;5078979;27;45360;-75
2022/03/12 08:36:06;;;;;;;;;8.33;5.00;;;;;13.62;63.85;101225.78;5078490;27;45382;-75
2022/03/12 08:38:34;;;;;;;;;25.67;23.00;;;;;14.14;62.25;101218.13;5077811;27;45269;-75
2022/03/12 08:41:00;;;;;;;;;10.00;7.00;;;;;14.56;58.47;101172.66;5078772;27;45438;-75
2022/03/12 08:43:25;;;;;;;;;8.00;5.00;;;;;15.12;59.33;101219.44;5077212;27;45437;-76
2022/03/12 08:45:51;;;;;;;;;9.67;7.33;;;;;15.48;58.10;101209.31;5077750;28;46195;-76
2022/03/12 08:48:17;;;;;;;;;7.67;4.67;;;;;15.34;57.42;101229.31;5078428;27;45454;-76
2022/03/12 08:50:46;;;;;;;;;5.00;4.00;;;;;14.76;58.55;101215.31;5078595;27;45289;-76
2022/03/12 08:53:12;;;;;;;;;5.00;5.00;;;;;14.33;58.24;101221.06;5078230;27;45557;-76
2022/03/12 08:55:38;;;;;;;;;5.00;4.00;;;;;14.27;59.15;101230.06;5078125;27;45380;-76
2022/03/12 08:58:04;;;;;;;;;5.67;5.33;;;;;14.48;59.31;101233.84;5078363;28;45386;-76
2022/03/12 09:00:30;;;;;;;;;7.00;4.00;;;;;15.39;57.10;101230.88;5079095;28;45361;-71
2022/03/12 09:02:56;;;;;;;;;7.33;5.00;;;;;16.17;55.13;101247.56;5078061;27;45404;-77
2022/03/12 09:05:21;;;;;;;;;3.00;3.00;;;;;16.75;54.62;101243.53;5077824;27;46368;-70
2022/03/12 09:07:51;;;;;;;;;7.00;5.00;;;;;16.88;53.21;101252.78;5077460;27;45431;-73
2022/03/12 09:10:18;;;;;;;;;6.33;4.67;;;;;17.32;52.93;101251.84;5078290;28;45205;-71
2022/03/12 09:12:43;;;;;;;;;9.67;8.67;;;;;17.34;52.43;101232.22;5078004;27;45316;-67
2022/03/12 09:15:10;;;;;;;;;3.67;3.67;;;;;17.02;51.44;101258.38;5077843;27;47433;-72
2022/03/12 09:17:36;;;;;;;;;5.67;4.33;;;;;16.45;53.37;101219.91;5077975;27;45485;-74
2022/03/12 09:20:05;;;;;;;;;4.75;3.50;;;;;16.38;53.16;101256.47;5077488;27;45295;-75
2022/03/12 09:22:31;;;;;;;;;4.33;4.33;;;;;16.06;53.87;101265.69;5076772;28;45344;-74
2022/03/12 09:24:56;;;;;;;;;5.67;4.67;;;;;15.74;53.04;101242.03;5087147;27;45736;-74
2022/03/12 09:27:22;;;;;;;;;4.33;3.67;;;;;15.78;54.28;101250.75;5077933;27;45485;-74
2022/03/12 09:29:48;;;;;;;;;4.67;4.33;;;;;15.86;54.78;101254.03;5077714;28;45333;-73
2022/03/12 09:32:13;;;;;;;;;6.00;4.00;;;;;16.27;54.13;101243.63;5077970;27;45383;-73
2022/03/12 09:34:39;;;;;;;;;5.00;5.00;;;;;16.75;52.48;101246.19;5077494;27;46715;-73
2022/03/12 09:37:06;;;;;;;;;4.33;4.00;;;;;16.88;52.89;101256.28;5077345;27;45444;-73
2022/03/12 09:39:33;;;;;;;;;8.33;4.00;;;;;17.27;50.67;101256.47;5077654;27;45541;-73
2022/03/12 09:41:59;;;;;;;;;3.33;3.33;;;;;17.39;51.51;101256.81;5077337;27;45438;-74
2022/03/12 09:44:24;;;;;;;;;3.67;3.67;;;;;17.33;51.42;101258.91;5076234;27;45905;-72
2022/03/12 09:46:50;;;;;;;;;3.67;3.67;;;;;17.27;50.70;101259.13;5077178;27;45257;-72
2022/03/12 09:49:16;;;;;;;;;3.00;3.00;;;;;17.78;50.70;101254.28;5077768;28;45261;-71
2022/03/12 09:51:43;;;;;;;;;3.00;3.00;;;;;18.31;49.76;101252.78;5088105;27;45472;-73
2022/03/12 09:54:08;;;;;;;;;3.00;2.00;;;;;18.37;49.38;101260.47;5076717;28;45822;-72
2022/03/12 09:56:34;;;;;;;;;4.67;4.00;;;;;17.93;48.10;101221.63;5076244;27;45372;-73
2022/03/12 09:58:59;;;;;;;;;11.67;7.67;;;;;18.10;47.21;101232.38;5077584;27;45475;-73
2022/03/12 10:01:25;;;;;;;;;3.67;3.33;;;;;18.40;47.68;101249.66;5077786;27;45434;-72
2022/03/12 10:03:50;;;;;;;;;6.00;5.33;;;;;18.24;48.11;101238.84;5077145;27;46438;-72
2022/03/12 10:06:16;;;;;;;;;18.33;14.67;;;;;18.13;47.47;101259.84;5077057;28;45422;-74
2022/03/12 10:08:43;;;;;;;;;5.00;3.00;;;;;17.93;47.79;101248.28;5076547;27;45392;-74
2022/03/12 10:11:08;;;;;;;;;8.00;4.67;;;;;18.14;47.61;101266.88;5077486;28;45250;-73
2022/03/12 10:13:34;;;;;;;;;2.50;2.00;;;;;18.10;48.47;101235.03;5075356;27;46785;-73
2022/03/12 10:15:59;;;;;;;;;3.00;2.00;;;;;18.64;48.49;101257.44;5077111;28;45310;-73
2022/03/12 10:18:26;;;;;;;;;3.00;3.00;;;;;19.14;45.89;101238.94;5076782;28;45332;-73
2022/03/12 10:20:52;;;;;;;;;3.00;3.00;;;;;20.09;45.79;101260.75;5076650;27;45451;-75
2022/03/12 10:23:17;;;;;;;;;5.00;4.00;;;;;20.78;43.62;101253.38;5076393;27;46636;-74
2022/03/12 10:25:43;;;;;;;;;4.00;2.67;;;;;21.44;42.18;101262.88;5076637;27;45507;-75
2022/03/12 10:28:08;;;;;;;;;4.67;4.67;;;;;21.95;42.37;101264.31;5077067;28;45241;-75
2022/03/12 10:30:36;;;;;;;;;5.33;4.00;;;;;21.90;39.47;101225.22;5077258;27;45435;-73
2022/03/12 10:33:02;;;;;;;;;12.67;12.33;;;;;22.19;39.60;101254.72;5076361;27;45425;-73
2022/03/12 10:35:34;;;;;;;;;8.00;6.33;;;;;22.33;40.18;101236.88;5075640;27;45232;-72
2022/03/12 10:38:00;;;;;;;;;8.67;3.33;;;;;22.33;38.13;101256.53;5076099;27;45346;-76
2022/03/12 10:40:26;;;;;;;;;1.67;1.67;;;;;22.14;38.30;101255.97;5076681;27;46087;-77
2022/03/12 10:42:57;;;;;;;;;2.00;2.00;;;;;21.72;38.94;101261.22;5076529;27;45540;-75
2022/03/12 10:45:31;;;;;;;;;5.33;3.00;;;;;20.76;40.24;101266.00;5076117;27;45444;-76
2022/03/12 10:47:59;;;;;;;;;4.33;4.33;;;;;20.32;41.27;101243.44;5077007;27;45271;-75
2022/03/12 10:50:47;;;;;;;;;4.00;4.00;;;;;19.88;42.28;101247.63;5076809;28;45382;-82
2022/03/12 10:53:15;;;;;;;;;4.00;3.33;;;;;19.49;42.82;101262.97;5075746;28;45301;-77
2022/03/12 10:55:43;;;;;;;;;7.00;5.00;;;;;19.18;43.50;101262.81;5069154;28;45412;-80
2022/03/12 10:58:15;;;;;;;;;3.67;3.67;;;;;18.99;43.42;101262.88;5080052;27;45721;-81
2022/03/12 11:00:52;;;;;;;;;6.00;4.00;;;;;18.66;44.44;101268.88;5079673;28;45163;-76
2022/03/12 11:03:23;;;;;;;;;2.00;2.00;;;;;18.35;44.29;101271.22;5078968;28;45547;-78
2022/03/12 11:05:51;;;;;;;;;3.00;2.67;;;;;17.83;44.75;101257.59;5080925;27;45301;-76
2022/03/12 11:08:17;;;;;;;;;8.00;3.33;;;;;17.68;45.24;101269.81;5100309;27;45338;-72
2022/03/12 11:11:11;;;;;;;;;7.67;2.00;;;;;17.27;45.59;101275.09;5100594;27;45318;-75
2022/03/12 11:13:49;;;;;;;;;2.00;2.00;;;;;16.91;46.80;101265.94;5091201;27;45753;-76
2022/03/12 11:16:32;;;;;;;;;3.00;3.00;;;;;16.75;47.84;101270.13;5089125;27;45401;-73
2022/03/12 11:19:08;;;;;;;;;6.00;3.67;;;;;16.63;47.87;101267.03;5079979;28;45443;-73
2022/03/12 11:21:46;;;;;;;;;4.00;3.00;;;;;16.55;48.31;101266.47;5079965;27;45466;-74
2022/03/12 11:24:24;;;;;;;;;2.67;2.00;;;;;16.36;48.54;101269.81;5079306;27;45489;-73
2022/03/12 11:26:58;;;;;;;;;5.67;3.67;;;;;16.21;48.46;101273.09;5079588;27;45300;-74
2022/03/12 11:29:26;;;;;;;;;6.00;4.00;;;;;15.79;49.29;101232.13;5079825;27;45308;-74
2022/03/12 11:32:09;;;;;;;;;3.67;3.67;;;;;15.97;49.66;101262.44;5079542;27;45434;-74